sensor_id;sensor_type;location;lat;lon;timestamp;pressure;altitude;pressure_sealevel;temperature;humidity
79368;BME280;68834;53.152;17.962;2023-05-16T00:00:33;99959.78;;;12.29;82.64
79368;BME280;68834;53.152;17.962;2023-05-16T00:03:20;99961.56;;;12.28;82.61
79368;BME280;68834;53.152;17.962;2023-05-16T00:05:47;99962.00;;;12.25;82.28
79368;BME280;68834;53.152;17.962;2023-05-16T00:08:13;99961.56;;;12.24;82.36
79368;BME280;68834;53.152;17.962;2023-05-16T00:10:40;99960.90;;;12.23;82.50
79368;BME280;68834;53.152;17.962;2023-05-16T00:13:06;99964.52;;;12.24;82.36
79368;BME280;68834;53.152;17.962;2023-05-16T00:15:33;99965.53;;;12.25;82.37
79368;BME280;68834;53.152;17.962;2023-05-16T00:18:00;99965.39;;;12.24;82.43
79368;BME280;68834;53.152;17.962;2023-05-16T00:20:27;99965.64;;;12.23;82.41
79368;BME280;68834;53.152;17.962;2023-05-16T00:22:54;99963.74;;;12.22;82.12
79368;BME280;68834;53.152;17.962;2023-05-16T00:25:22;99965.41;;;12.20;82.64
79368;BME280;68834;53.152;17.962;2023-05-16T00:27:48;99965.56;;;12.16;82.30
79368;BME280;68834;53.152;17.962;2023-05-16T00:30:15;99966.52;;;12.15;82.40
79368;BME280;68834;53.152;17.962;2023-05-16T00:32:42;99970.48;;;12.12;82.41
79368;BME280;68834;53.152;17.962;2023-05-16T00:35:09;99972.86;;;12.10;82.36
79368;BME280;68834;53.152;17.962;2023-05-16T00:37:39;99976.73;;;12.10;82.54
79368;BME280;68834;53.152;17.962;2023-05-16T00:40:06;99975.70;;;12.09;82.31
79368;BME280;68834;53.152;17.962;2023-05-16T00:42:33;99977.52;;;12.08;82.46
79368;BME280;68834;53.152;17.962;2023-05-16T00:44:59;99980.36;;;12.07;82.43
79368;BME280;68834;53.152;17.962;2023-05-16T00:47:26;99979.52;;;12.06;82.32
79368;BME280;68834;53.152;17.962;2023-05-16T00:49:53;99979.61;;;12.04;82.13
79368;BME280;68834;53.152;17.962;2023-05-16T00:52:21;99980.71;;;12.03;82.00
79368;BME280;68834;53.152;17.962;2023-05-16T00:54:50;99981.45;;;12.02;81.98
79368;BME280;68834;53.152;17.962;2023-05-16T00:57:17;99983.14;;;11.99;81.77
79368;BME280;68834;53.152;17.962;2023-05-16T00:59:47;99986.91;;;11.97;82.25
79368;BME280;68834;53.152;17.962;2023-05-16T01:02:14;99986.90;;;11.97;81.98
79368;BME280;68834;53.152;17.962;2023-05-16T01:04:42;99989.83;;;11.98;81.71
79368;BME280;68834;53.152;17.962;2023-05-16T01:07:09;99991.88;;;11.99;81.83
79368;BME280;68834;53.152;17.962;2023-05-16T01:09:37;99993.08;;;12.00;81.77
79368;BME280;68834;53.152;17.962;2023-05-16T01:12:28;99995.56;;;11.99;81.94
79368;BME280;68834;53.152;17.962;2023-05-16T01:15:13;99997.67;;;11.95;81.75
79368;BME280;68834;53.152;17.962;2023-05-16T01:18:02;99994.43;;;11.94;81.75
79368;BME280;68834;53.152;17.962;2023-05-16T01:20:56;99995.35;;;11.92;81.99
79368;BME280;68834;53.152;17.962;2023-05-16T01:23:55;99999.36;;;11.89;81.87
79368;BME280;68834;53.152;17.962;2023-05-16T01:26:27;100000.34;;;11.86;81.35
79368;BME280;68834;53.152;17.962;2023-05-16T01:28:54;100003.55;;;11.84;81.93
79368;BME280;68834;53.152;17.962;2023-05-16T01:31:22;100004.65;;;11.83;82.07
79368;BME280;68834;53.152;17.962;2023-05-16T01:33:49;100006.38;;;11.79;82.16
79368;BME280;68834;53.152;17.962;2023-05-16T01:39:43;100011.27;;;11.74;82.19
79368;BME280;68834;53.152;17.962;2023-05-16T01:42:14;100018.15;;;11.74;81.98
79368;BME280;68834;53.152;17.962;2023-05-16T01:45:01;100018.33;;;11.74;82.20
79368;BME280;68834;53.152;17.962;2023-05-16T01:47:30;100023.20;;;11.74;82.02
79368;BME280;68834;53.152;17.962;2023-05-16T01:50:09;100026.70;;;11.74;81.93
79368;BME280;68834;53.152;17.962;2023-05-16T01:52:44;100029.13;;;11.75;82.33
79368;BME280;68834;53.152;17.962;2023-05-16T01:55:30;100026.84;;;11.75;82.13
79368;BME280;68834;53.152;17.962;2023-05-16T01:58:02;100023.73;;;11.74;82.26
79368;BME280;68834;53.152;17.962;2023-05-16T02:00:30;100024.67;;;11.72;82.03
79368;BME280;68834;53.152;17.962;2023-05-16T02:02:59;100023.50;;;11.75;82.02
79368;BME280;68834;53.152;17.962;2023-05-16T02:05:26;100028.21;;;11.75;81.96
79368;BME280;68834;53.152;17.962;2023-05-16T02:07:52;100031.27;;;11.74;82.00
79368;BME280;68834;53.152;17.962;2023-05-16T02:10:19;100036.59;;;11.72;81.86
79368;BME280;68834;53.152;17.962;2023-05-16T02:12:46;100038.47;;;11.73;81.87
79368;BME280;68834;53.152;17.962;2023-05-16T02:15:13;100042.17;;;11.77;81.36
79368;BME280;68834;53.152;17.962;2023-05-16T02:17:40;100051.09;;;11.82;81.50
79368;BME280;68834;53.152;17.962;2023-05-16T02:20:07;100053.65;;;11.84;81.41
79368;BME280;68834;53.152;17.962;2023-05-16T02:22:37;100058.68;;;11.85;81.11
79368;BME280;68834;53.152;17.962;2023-05-16T02:25:09;100064.64;;;11.85;81.18
79368;BME280;68834;53.152;17.962;2023-05-16T02:27:36;100066.77;;;11.84;81.09
79368;BME280;68834;53.152;17.962;2023-05-16T02:30:02;100070.77;;;11.85;80.73
79368;BME280;68834;53.152;17.962;2023-05-16T02:32:31;100072.05;;;11.88;80.87
79368;BME280;68834;53.152;17.962;2023-05-16T02:34:58;100075.64;;;11.90;80.84
79368;BME280;68834;53.152;17.962;2023-05-16T02:37:24;100075.07;;;11.91;80.46
79368;BME280;68834;53.152;17.962;2023-05-16T02:39:51;100083.71;;;11.90;80.37
79368;BME280;68834;53.152;17.962;2023-05-16T02:42:18;100086.75;;;11.88;80.23
79368;BME280;68834;53.152;17.962;2023-05-16T02:44:44;100093.16;;;11.85;80.41
79368;BME280;68834;53.152;17.962;2023-05-16T02:47:11;100095.41;;;11.86;80.38
79368;BME280;68834;53.152;17.962;2023-05-16T02:49:37;100096.14;;;11.86;80.30
79368;BME280;68834;53.152;17.962;2023-05-16T02:52:04;100100.85;;;11.86;80.41
79368;BME280;68834;53.152;17.962;2023-05-16T02:54:31;100103.08;;;11.87;80.18
79368;BME280;68834;53.152;17.962;2023-05-16T02:56:57;100104.14;;;11.87;80.11
79368;BME280;68834;53.152;17.962;2023-05-16T02:59:25;100104.05;;;11.85;79.93
79368;BME280;68834;53.152;17.962;2023-05-16T03:01:52;100107.70;;;11.80;79.83
79368;BME280;68834;53.152;17.962;2023-05-16T03:04:18;100107.81;;;11.77;79.97
79368;BME280;68834;53.152;17.962;2023-05-16T03:06:45;100118.02;;;11.76;79.85
79368;BME280;68834;53.152;17.962;2023-05-16T03:09:12;100120.29;;;11.76;79.99
79368;BME280;68834;53.152;17.962;2023-05-16T03:11:39;100122.89;;;11.77;79.99
79368;BME280;68834;53.152;17.962;2023-05-16T03:14:05;100122.43;;;11.75;79.72
79368;BME280;68834;53.152;17.962;2023-05-16T03:16:32;100127.23;;;11.73;79.94
79368;BME280;68834;53.152;17.962;2023-05-16T03:18:58;100132.84;;;11.73;80.20
79368;BME280;68834;53.152;17.962;2023-05-16T03:21:26;100141.23;;;11.74;79.85
79368;BME280;68834;53.152;17.962;2023-05-16T03:23:53;100137.11;;;11.76;80.14
79368;BME280;68834;53.152;17.962;2023-05-16T03:26:20;100142.20;;;11.80;79.76
79368;BME280;68834;53.152;17.962;2023-05-16T03:28:48;100144.89;;;11.83;79.61
79368;BME280;68834;53.152;17.962;2023-05-16T03:31:15;100152.77;;;11.83;79.73
79368;BME280;68834;53.152;17.962;2023-05-16T03:33:42;100153.20;;;11.81;79.47
79368;BME280;68834;53.152;17.962;2023-05-16T03:36:09;100157.65;;;11.84;79.93
79368;BME280;68834;53.152;17.962;2023-05-16T03:38:36;100154.16;;;11.84;79.74
79368;BME280;68834;53.152;17.962;2023-05-16T03:41:03;100149.92;;;11.85;79.88
79368;BME280;68834;53.152;17.962;2023-05-16T03:43:30;100151.42;;;11.87;79.49
79368;BME280;68834;53.152;17.962;2023-05-16T03:45:56;100156.70;;;11.91;79.62
79368;BME280;68834;53.152;17.962;2023-05-16T03:48:23;100163.13;;;11.92;79.51
79368;BME280;68834;53.152;17.962;2023-05-16T03:50:49;100169.87;;;11.90;79.11
79368;BME280;68834;53.152;17.962;2023-05-16T03:53:16;100174.36;;;11.91;79.53
79368;BME280;68834;53.152;17.962;2023-05-16T03:55:43;100171.95;;;11.95;79.32
79368;BME280;68834;53.152;17.962;2023-05-16T03:58:09;100173.36;;;11.99;79.34
79368;BME280;68834;53.152;17.962;2023-05-16T04:00:36;100177.27;;;12.06;79.30
79368;BME280;68834;53.152;17.962;2023-05-16T04:03:03;100178.47;;;12.15;78.76
79368;BME280;68834;53.152;17.962;2023-05-16T04:05:30;100178.06;;;12.25;78.50
79368;BME280;68834;53.152;17.962;2023-05-16T04:07:56;100178.42;;;12.34;78.40
79368;BME280;68834;53.152;17.962;2023-05-16T04:10:23;100178.27;;;12.37;78.44
79368;BME280;68834;53.152;17.962;2023-05-16T04:12:50;100189.73;;;12.40;78.50
79368;BME280;68834;53.152;17.962;2023-05-16T04:15:16;100193.50;;;12.42;78.34
79368;BME280;68834;53.152;17.962;2023-05-16T04:17:43;100201.14;;;12.44;78.11
79368;BME280;68834;53.152;17.962;2023-05-16T04:20:10;100204.34;;;12.47;77.78
79368;BME280;68834;53.152;17.962;2023-05-16T04:22:36;100202.98;;;12.50;77.84
79368;BME280;68834;53.152;17.962;2023-05-16T04:25:03;100207.23;;;12.53;77.91
79368;BME280;68834;53.152;17.962;2023-05-16T04:27:30;100206.30;;;12.55;77.54
79368;BME280;68834;53.152;17.962;2023-05-16T04:29:56;100211.96;;;12.53;77.74
79368;BME280;68834;53.152;17.962;2023-05-16T04:32:25;100223.51;;;12.54;77.55
79368;BME280;68834;53.152;17.962;2023-05-16T04:34:54;100231.21;;;12.54;77.57
79368;BME280;68834;53.152;17.962;2023-05-16T04:37:20;100241.70;;;12.55;77.65
79368;BME280;68834;53.152;17.962;2023-05-16T04:39:47;100246.28;;;12.54;77.32
79368;BME280;68834;53.152;17.962;2023-05-16T04:42:14;100250.63;;;12.51;77.48
79368;BME280;68834;53.152;17.962;2023-05-16T04:44:41;100256.05;;;12.47;77.75
79368;BME280;68834;53.152;17.962;2023-05-16T04:47:09;100256.58;;;12.46;77.52
79368;BME280;68834;53.152;17.962;2023-05-16T04:49:36;100261.73;;;12.54;77.49
79368;BME280;68834;53.152;17.962;2023-05-16T04:52:03;100261.70;;;12.59;77.68
79368;BME280;68834;53.152;17.962;2023-05-16T04:54:30;100261.30;;;12.64;77.13
79368;BME280;68834;53.152;17.962;2023-05-16T04:56:56;100266.30;;;12.66;77.12
79368;BME280;68834;53.152;17.962;2023-05-16T04:59:23;100272.05;;;12.67;77.12
79368;BME280;68834;53.152;17.962;2023-05-16T05:01:49;100280.29;;;12.71;76.92
79368;BME280;68834;53.152;17.962;2023-05-16T05:04:16;100282.54;;;12.72;76.71
79368;BME280;68834;53.152;17.962;2023-05-16T05:06:43;100279.45;;;12.70;76.72
79368;BME280;68834;53.152;17.962;2023-05-16T05:09:09;100286.69;;;12.74;76.77
79368;BME280;68834;53.152;17.962;2023-05-16T05:11:36;100292.55;;;12.85;76.40
79368;BME280;68834;53.152;17.962;2023-05-16T05:14:03;100299.38;;;12.97;76.05
79368;BME280;68834;53.152;17.962;2023-05-16T05:16:29;100303.63;;;13.05;76.14
79368;BME280;68834;53.152;17.962;2023-05-16T05:18:56;100311.39;;;13.08;76.07
79368;BME280;68834;53.152;17.962;2023-05-16T05:21:22;100314.76;;;13.11;75.59
79368;BME280;68834;53.152;17.962;2023-05-16T05:23:50;100326.84;;;13.20;75.23
79368;BME280;68834;53.152;17.962;2023-05-16T05:26:17;100327.61;;;13.28;74.67
79368;BME280;68834;53.152;17.962;2023-05-16T05:28:44;100329.45;;;13.38;74.35
79368;BME280;68834;53.152;17.962;2023-05-16T05:31:10;100334.00;;;13.46;74.01
79368;BME280;68834;53.152;17.962;2023-05-16T05:33:37;100341.84;;;13.52;73.88
79368;BME280;68834;53.152;17.962;2023-05-16T05:36:04;100345.64;;;13.57;73.56
79368;BME280;68834;53.152;17.962;2023-05-16T05:38:31;100351.52;;;13.63;73.36
79368;BME280;68834;53.152;17.962;2023-05-16T05:40:57;100356.80;;;13.75;73.39
79368;BME280;68834;53.152;17.962;2023-05-16T05:43:24;100359.57;;;13.80;72.65
79368;BME280;68834;53.152;17.962;2023-05-16T05:45:51;100360.94;;;13.77;72.72
79368;BME280;68834;53.152;17.962;2023-05-16T05:48:17;100360.59;;;13.81;72.72
79368;BME280;68834;53.152;17.962;2023-05-16T05:50:44;100362.65;;;13.85;72.14
79368;BME280;68834;53.152;17.962;2023-05-16T05:53:10;100365.75;;;13.91;71.91
79368;BME280;68834;53.152;17.962;2023-05-16T05:55:37;100365.12;;;13.97;71.86
79368;BME280;68834;53.152;17.962;2023-05-16T05:58:07;100371.95;;;14.05;71.66
79368;BME280;68834;53.152;17.962;2023-05-16T06:00:33;100375.77;;;14.14;71.49
79368;BME280;68834;53.152;17.962;2023-05-16T06:03:00;100375.94;;;14.18;71.35
79368;BME280;68834;53.152;17.962;2023-05-16T06:05:26;100377.98;;;14.31;71.12
79368;BME280;68834;53.152;17.962;2023-05-16T06:07:53;100373.38;;;14.43;70.37
79368;BME280;68834;53.152;17.962;2023-05-16T06:10:19;100376.11;;;14.52;70.00
79368;BME280;68834;53.152;17.962;2023-05-16T06:12:46;100378.42;;;14.71;69.74
79368;BME280;68834;53.152;17.962;2023-05-16T06:15:13;100370.87;;;14.89;69.13
79368;BME280;68834;53.152;17.962;2023-05-16T06:17:39;100372.13;;;14.99;68.83
79368;BME280;68834;53.152;17.962;2023-05-16T06:20:07;100373.83;;;15.04;68.60
79368;BME280;68834;53.152;17.962;2023-05-16T06:22:34;100373.02;;;15.06;67.55
79368;BME280;68834;53.152;17.962;2023-05-16T06:25:01;100387.17;;;14.97;68.16
79368;BME280;68834;53.152;17.962;2023-05-16T06:27:27;100392.45;;;14.87;68.22
79368;BME280;68834;53.152;17.962;2023-05-16T06:29:54;100395.30;;;14.75;68.59
79368;BME280;68834;53.152;17.962;2023-05-16T06:32:20;100399.73;;;14.71;68.57
79368;BME280;68834;53.152;17.962;2023-05-16T06:34:48;100406.48;;;14.62;68.61
79368;BME280;68834;53.152;17.962;2023-05-16T06:37:14;100407.19;;;14.54;68.74
79368;BME280;68834;53.152;17.962;2023-05-16T06:39:41;100419.00;;;14.45;68.97
79368;BME280;68834;53.152;17.962;2023-05-16T06:42:08;100429.73;;;14.33;69.01
79368;BME280;68834;53.152;17.962;2023-05-16T06:44:37;100434.13;;;14.26;69.35
79368;BME280;68834;53.152;17.962;2023-05-16T06:47:03;100440.29;;;14.22;69.40
79368;BME280;68834;53.152;17.962;2023-05-16T06:49:30;100449.73;;;14.19;69.58
79368;BME280;68834;53.152;17.962;2023-05-16T06:51:57;100449.80;;;14.18;69.50
79368;BME280;68834;53.152;17.962;2023-05-16T06:54:23;100450.90;;;14.12;69.38
79368;BME280;68834;53.152;17.962;2023-05-16T06:56:50;100454.14;;;14.11;69.73
79368;BME280;68834;53.152;17.962;2023-05-16T06:59:16;100460.14;;;14.10;69.61
79368;BME280;68834;53.152;17.962;2023-05-16T07:01:43;100470.77;;;14.08;69.68
79368;BME280;68834;53.152;17.962;2023-05-16T07:04:10;100477.68;;;14.15;69.59
79368;BME280;68834;53.152;17.962;2023-05-16T07:06:36;100477.46;;;14.28;69.54
79368;BME280;68834;53.152;17.962;2023-05-16T07:09:03;100481.75;;;14.46;69.02
79368;BME280;68834;53.152;17.962;2023-05-16T07:11:30;100478.35;;;14.67;68.83
79368;BME280;68834;53.152;17.962;2023-05-16T07:13:56;100488.41;;;14.93;68.27
79368;BME280;68834;53.152;17.962;2023-05-16T07:16:23;100499.23;;;15.13;68.27
79368;BME280;68834;53.152;17.962;2023-05-16T07:18:50;100501.60;;;15.19;67.40
79368;BME280;68834;53.152;17.962;2023-05-16T07:21:17;100505.85;;;15.11;67.72
79368;BME280;68834;53.152;17.962;2023-05-16T07:23:44;100508.38;;;15.06;67.04
79368;BME280;68834;53.152;17.962;2023-05-16T07:26:10;100508.60;;;15.01;67.13
79368;BME280;68834;53.152;17.962;2023-05-16T07:28:37;100511.94;;;15.01;67.15
79368;BME280;68834;53.152;17.962;2023-05-16T07:31:03;100518.42;;;14.98;67.01
79368;BME280;68834;53.152;17.962;2023-05-16T07:33:32;100521.56;;;14.95;67.09
79368;BME280;68834;53.152;17.962;2023-05-16T07:35:59;100531.70;;;14.93;66.95
79368;BME280;68834;53.152;17.962;2023-05-16T07:38:26;100539.77;;;14.93;66.89
79368;BME280;68834;53.152;17.962;2023-05-16T07:40:52;100540.60;;;15.13;66.75
79368;BME280;68834;53.152;17.962;2023-05-16T07:43:19;100540.53;;;15.59;66.21
79368;BME280;68834;53.152;17.962;2023-05-16T07:45:46;100540.73;;;16.11;64.92
79368;BME280;68834;53.152;17.962;2023-05-16T07:48:12;100546.73;;;16.62;64.54
79368;BME280;68834;53.152;17.962;2023-05-16T07:50:39;100556.23;;;16.96;63.18
79368;BME280;68834;53.152;17.962;2023-05-16T07:53:07;100565.63;;;17.28;62.22
79368;BME280;68834;53.152;17.962;2023-05-16T07:55:34;100571.83;;;17.43;61.85
79368;BME280;68834;53.152;17.962;2023-05-16T07:58:01;100583.09;;;17.37;60.10
79368;BME280;68834;53.152;17.962;2023-05-16T08:00:28;100592.69;;;17.21;60.49
79368;BME280;68834;53.152;17.962;2023-05-16T08:02:55;100594.88;;;17.13;61.60
79368;BME280;68834;53.152;17.962;2023-05-16T08:05:22;100602.02;;;17.08;61.42
79368;BME280;68834;53.152;17.962;2023-05-16T08:07:49;100600.34;;;16.90;60.43
79368;BME280;68834;53.152;17.962;2023-05-16T08:10:16;100607.12;;;16.72;61.02
79368;BME280;68834;53.152;17.962;2023-05-16T08:12:42;100614.17;;;16.72;61.34
79368;BME280;68834;53.152;17.962;2023-05-16T08:15:09;100613.11;;;16.76;61.58
79368;BME280;68834;53.152;17.962;2023-05-16T08:17:36;100613.73;;;16.87;61.21
79368;BME280;68834;53.152;17.962;2023-05-16T08:20:04;100609.39;;;16.96;60.58
79368;BME280;68834;53.152;17.962;2023-05-16T08:22:31;100607.56;;;17.07;60.12
79368;BME280;68834;53.152;17.962;2023-05-16T08:24:58;100605.09;;;17.04;59.63
79368;BME280;68834;53.152;17.962;2023-05-16T08:27:27;100602.48;;;17.03;59.89
79368;BME280;68834;53.152;17.962;2023-05-16T08:29:54;100604.34;;;17.27;60.03
79368;BME280;68834;53.152;17.962;2023-05-16T08:32:21;100610.73;;;17.55;58.27
79368;BME280;68834;53.152;17.962;2023-05-16T08:34:48;100599.75;;;17.71;58.40
79368;BME280;68834;53.152;17.962;2023-05-16T08:37:15;100603.58;;;17.85;58.49
79368;BME280;68834;53.152;17.962;2023-05-16T08:39:41;100603.64;;;18.05;58.46
79368;BME280;68834;53.152;17.962;2023-05-16T08:42:08;100599.95;;;18.38;57.25
79368;BME280;68834;53.152;17.962;2023-05-16T08:44:35;100600.67;;;18.70;56.08
79368;BME280;68834;53.152;17.962;2023-05-16T08:47:15;100600.80;;;19.08;55.55
79368;BME280;68834;53.152;17.962;2023-05-16T08:49:46;100608.82;;;19.36;53.11
79368;BME280;68834;53.152;17.962;2023-05-16T08:52:17;100605.91;;;19.62;53.77
79368;BME280;68834;53.152;17.962;2023-05-16T08:54:45;100605.11;;;19.91;52.30
79368;BME280;68834;53.152;17.962;2023-05-16T08:57:13;100607.43;;;20.22;52.41
79368;BME280;68834;53.152;17.962;2023-05-16T08:59:40;100600.31;;;20.51;51.72
79368;BME280;68834;53.152;17.962;2023-05-16T09:02:07;100605.96;;;20.44;51.30
79368;BME280;68834;53.152;17.962;2023-05-16T09:04:36;100606.79;;;20.29;51.45
79368;BME280;68834;53.152;17.962;2023-05-16T09:07:04;100614.68;;;20.33;51.50
79368;BME280;68834;53.152;17.962;2023-05-16T09:09:31;100616.14;;;20.40;49.70
79368;BME280;68834;53.152;17.962;2023-05-16T09:11:57;100611.02;;;20.45;50.14
79368;BME280;68834;53.152;17.962;2023-05-16T09:14:24;100608.04;;;20.65;49.75
79368;BME280;68834;53.152;17.962;2023-05-16T09:17:05;100607.17;;;20.86;47.86
79368;BME280;68834;53.152;17.962;2023-05-16T09:19:36;100606.02;;;21.05;48.31
79368;BME280;68834;53.152;17.962;2023-05-16T09:22:06;100600.62;;;21.36;47.58
79368;BME280;68834;53.152;17.962;2023-05-16T09:24:41;100595.48;;;21.71;47.26
79368;BME280;68834;53.152;17.962;2023-05-16T09:27:13;100594.49;;;22.11;44.85
79368;BME280;68834;53.152;17.962;2023-05-16T09:29:41;100596.65;;;22.39;44.94
79368;BME280;68834;53.152;17.962;2023-05-16T09:32:09;100595.83;;;22.70;44.53
79368;BME280;68834;53.152;17.962;2023-05-16T09:34:47;100592.27;;;22.86;44.16
79368;BME280;68834;53.152;17.962;2023-05-16T09:37:15;100593.45;;;23.10;43.96
79368;BME280;68834;53.152;17.962;2023-05-16T09:39:59;100600.84;;;23.16;43.55
79368;BME280;68834;53.152;17.962;2023-05-16T09:42:26;100609.80;;;23.37;42.64
79368;BME280;68834;53.152;17.962;2023-05-16T09:44:53;100608.84;;;23.67;42.13
79368;BME280;68834;53.152;17.962;2023-05-16T09:47:21;100607.09;;;23.97;41.38
79368;BME280;68834;53.152;17.962;2023-05-16T09:49:51;100611.23;;;24.26;40.76
79368;BME280;68834;53.152;17.962;2023-05-16T09:52:19;100610.42;;;24.59;41.27
79368;BME280;68834;53.152;17.962;2023-05-16T09:54:46;100614.69;;;24.90;40.74
79368;BME280;68834;53.152;17.962;2023-05-16T09:57:19;100620.22;;;25.05;40.05
79368;BME280;68834;53.152;17.962;2023-05-16T09:59:47;100624.90;;;25.23;39.57
79368;BME280;68834;53.152;17.962;2023-05-16T10:02:13;100625.92;;;25.31;39.12
79368;BME280;68834;53.152;17.962;2023-05-16T10:04:41;100622.17;;;25.38;38.65
79368;BME280;68834;53.152;17.962;2023-05-16T10:07:08;100615.00;;;25.64;38.37
79368;BME280;68834;53.152;17.962;2023-05-16T10:09:35;100618.14;;;25.88;37.25
79368;BME280;68834;53.152;17.962;2023-05-16T10:12:07;100616.57;;;26.09;37.11
79368;BME280;68834;53.152;17.962;2023-05-16T10:14:37;100618.41;;;26.36;35.89
79368;BME280;68834;53.152;17.962;2023-05-16T10:17:05;100623.31;;;26.29;36.41
79368;BME280;68834;53.152;17.962;2023-05-16T10:19:37;100626.73;;;26.33;35.52
79368;BME280;68834;53.152;17.962;2023-05-16T10:22:05;100640.79;;;26.32;35.50
79368;BME280;68834;53.152;17.962;2023-05-16T10:24:43;100650.08;;;26.31;35.17
79368;BME280;68834;53.152;17.962;2023-05-16T10:27:13;100663.43;;;26.10;35.53
79368;BME280;68834;53.152;17.962;2023-05-16T10:29:40;100670.46;;;25.84;35.33
79368;BME280;68834;53.152;17.962;2023-05-16T10:32:07;100675.62;;;25.66;36.01
79368;BME280;68834;53.152;17.962;2023-05-16T10:34:37;100677.48;;;25.77;35.88
79368;BME280;68834;53.152;17.962;2023-05-16T10:37:05;100680.23;;;25.87;35.31
79368;BME280;68834;53.152;17.962;2023-05-16T10:39:32;100672.62;;;26.00;35.75
79368;BME280;68834;53.152;17.962;2023-05-16T10:41:59;100678.60;;;26.05;33.69
79368;BME280;68834;53.152;17.962;2023-05-16T10:44:25;100671.35;;;25.98;34.52
79368;BME280;68834;53.152;17.962;2023-05-16T10:46:52;100669.02;;;25.96;34.69
79368;BME280;68834;53.152;17.962;2023-05-16T10:49:24;100671.23;;;25.69;35.13
79368;BME280;68834;53.152;17.962;2023-05-16T10:52:10;100661.92;;;25.19;35.08
79368;BME280;68834;53.152;17.962;2023-05-16T10:54:42;100662.52;;;24.93;35.77
79368;BME280;68834;53.152;17.962;2023-05-16T10:57:11;100657.90;;;25.38;35.50
79368;BME280;68834;53.152;17.962;2023-05-16T10:59:46;100659.77;;;25.81;34.97
79368;BME280;68834;53.152;17.962;2023-05-16T11:02:22;100661.83;;;25.78;34.03
79368;BME280;68834;53.152;17.962;2023-05-16T11:04:52;100668.13;;;25.28;34.03
79368;BME280;68834;53.152;17.962;2023-05-16T11:07:22;100679.09;;;24.75;35.08
79368;BME280;68834;53.152;17.962;2023-05-16T11:10:05;100676.26;;;24.39;35.32
79368;BME280;68834;53.152;17.962;2023-05-16T11:15:25;100687.80;;;24.18;35.99
79368;BME280;68834;53.152;17.962;2023-05-16T11:18:15;100689.45;;;24.07;36.31
79368;BME280;68834;53.152;17.962;2023-05-16T11:20:42;100697.21;;;23.93;36.51
79368;BME280;68834;53.152;17.962;2023-05-16T11:25:55;100699.06;;;23.29;37.42
79368;BME280;68834;53.152;17.962;2023-05-16T11:28:24;100706.27;;;23.01;38.08
79368;BME280;68834;53.152;17.962;2023-05-16T11:30:54;100704.73;;;22.89;38.38
79368;BME280;68834;53.152;17.962;2023-05-16T11:33:23;100706.92;;;22.98;38.94
79368;BME280;68834;53.152;17.962;2023-05-16T11:36:03;100717.17;;;23.06;38.86
79368;BME280;68834;53.152;17.962;2023-05-16T11:38:31;100722.30;;;22.87;39.17
79368;BME280;68834;53.152;17.962;2023-05-16T11:41:02;100723.60;;;22.66;39.47
79368;BME280;68834;53.152;17.962;2023-05-16T11:43:36;100726.45;;;22.35;39.89
79368;BME280;68834;53.152;17.962;2023-05-16T11:46:02;100726.05;;;22.24;40.43
79368;BME280;68834;53.152;17.962;2023-05-16T11:48:29;100721.52;;;22.20;40.13
79368;BME280;68834;53.152;17.962;2023-05-16T11:50:56;100727.52;;;22.16;40.11
79368;BME280;68834;53.152;17.962;2023-05-16T11:53:23;100733.91;;;22.08;40.42
79368;BME280;68834;53.152;17.962;2023-05-16T11:55:49;100735.58;;;22.00;40.20
79368;BME280;68834;53.152;17.962;2023-05-16T11:58:18;100738.86;;;21.87;40.50
79368;BME280;68834;53.152;17.962;2023-05-16T12:00:49;100742.29;;;21.76;40.70
79368;BME280;68834;53.152;17.962;2023-05-16T12:03:17;100746.88;;;21.49;41.25
79368;BME280;68834;53.152;17.962;2023-05-16T12:05:51;100756.75;;;21.22;41.67
79368;BME280;68834;53.152;17.962;2023-05-16T12:08:19;100759.47;;;20.96;42.29
79368;BME280;68834;53.152;17.962;2023-05-16T12:10:51;100760.89;;;20.58;42.84
79368;BME280;68834;53.152;17.962;2023-05-16T12:13:19;100765.13;;;20.40;43.25
79368;BME280;68834;53.152;17.962;2023-05-16T12:15:47;100766.73;;;20.32;43.94
79368;BME280;68834;53.152;17.962;2023-05-16T12:18:14;100762.82;;;20.21;44.55
79368;BME280;68834;53.152;17.962;2023-05-16T12:20:44;100766.36;;;20.07;44.84
79368;BME280;68834;53.152;17.962;2023-05-16T12:23:11;100768.19;;;20.04;45.03
79368;BME280;68834;53.152;17.962;2023-05-16T12:25:44;100773.16;;;20.06;45.40
79368;BME280;68834;53.152;17.962;2023-05-16T12:28:13;100778.42;;;20.07;45.12
79368;BME280;68834;53.152;17.962;2023-05-16T12:30:41;100778.52;;;20.06;45.31
79368;BME280;68834;53.152;17.962;2023-05-16T12:33:12;100776.48;;;20.18;45.54
79368;BME280;68834;53.152;17.962;2023-05-16T12:35:40;100777.02;;;20.40;45.44
79368;BME280;68834;53.152;17.962;2023-05-16T12:38:09;100777.80;;;20.66;45.04
79368;BME280;68834;53.152;17.962;2023-05-16T12:40:38;100779.75;;;20.90;44.10
79368;BME280;68834;53.152;17.962;2023-05-16T12:43:13;100779.26;;;20.95;43.86
79368;BME280;68834;53.152;17.962;2023-05-16T12:45:40;100772.23;;;20.94;43.95
79368;BME280;68834;53.152;17.962;2023-05-16T12:48:12;100781.66;;;20.85;43.67
79368;BME280;68834;53.152;17.962;2023-05-16T12:50:40;100782.13;;;20.68;43.80
79368;BME280;68834;53.152;17.962;2023-05-16T12:53:11;100783.94;;;20.59;44.03
79368;BME280;68834;53.152;17.962;2023-05-16T12:55:39;100792.07;;;21.10;43.79